Terminal Aerodrome Forecast
Issued by NWS

Home | Current Version | Previous Version | Text Only | Print | Product List | Glossary On
Versions: 1 2 3 4 5 6 7 8 9 10 11 12 13
000
FTUS41 KBTV 011120
TAFMPV
TAF
KMPV 011120Z 0112/0212 17007KT P6SM -SHRA OVC020
      TEMPO 0113/0115 3SM SHRA BR OVC015
     FM011500 17005KT P6SM VCSH SCT012 OVC028
      TEMPO 0118/0121 3SM TSRA BR OVC025CB
     FM012300 24008KT P6SM VCSH SCT025 OVC045=

USA.gov is the U.S. government's official web portal to all federal, state and local government web resources and services.